sensor_id;sensor_type;location;lat;lon;timestamp;P1;durP1;ratioP1;P2;durP2;ratioP2
31978;SDS011;18502;43.574;1.276;2022-12-18T00:01:44;14.30;;;9.55;;
31978;SDS011;18502;43.574;1.276;2022-12-18T00:04:22;15.80;;;10.48;;
31978;SDS011;18502;43.574;1.276;2022-12-18T00:06:49;11.13;;;7.57;;
31978;SDS011;18502;43.574;1.276;2022-12-18T00:09:15;16.45;;;10.60;;
31978;SDS011;18502;43.574;1.276;2022-12-18T00:11:41;17.27;;;9.38;;
31978;SDS011;18502;43.574;1.276;2022-12-18T00:14:08;14.50;;;9.43;;
31978;SDS011;18502;43.574;1.276;2022-12-18T00:16:35;16.38;;;10.07;;
31978;SDS011;18502;43.574;1.276;2022-12-18T00:19:02;14.15;;;9.02;;
31978;SDS011;18502;43.574;1.276;2022-12-18T00:21:29;15.10;;;9.15;;
31978;SDS011;18502;43.574;1.276;2022-12-18T00:23:56;18.15;;;10.63;;
31978;SDS011;18502;43.574;1.276;2022-12-18T00:26:23;16.35;;;10.27;;
31978;SDS011;18502;43.574;1.276;2022-12-18T00:28:54;15.98;;;9.43;;
31978;SDS011;18502;43.574;1.276;2022-12-18T00:31:23;16.35;;;10.18;;
31978;SDS011;18502;43.574;1.276;2022-12-18T00:33:49;13.35;;;8.38;;
31978;SDS011;18502;43.574;1.276;2022-12-18T00:36:17;15.25;;;8.65;;
31978;SDS011;18502;43.574;1.276;2022-12-18T00:38:44;17.92;;;9.65;;
31978;SDS011;18502;43.574;1.276;2022-12-18T00:41:12;17.25;;;10.38;;
31978;SDS011;18502;43.574;1.276;2022-12-18T00:43:39;13.27;;;9.13;;
31978;SDS011;18502;43.574;1.276;2022-12-18T00:46:05;13.75;;;9.18;;
31978;SDS011;18502;43.574;1.276;2022-12-18T00:48:31;17.77;;;10.65;;
31978;SDS011;18502;43.574;1.276;2022-12-18T00:50:57;16.80;;;9.95;;
31978;SDS011;18502;43.574;1.276;2022-12-18T00:53:23;16.40;;;10.60;;
31978;SDS011;18502;43.574;1.276;2022-12-18T00:55:48;16.80;;;10.70;;
31978;SDS011;18502;43.574;1.276;2022-12-18T00:58:15;20.17;;;11.25;;
31978;SDS011;18502;43.574;1.276;2022-12-18T01:00:42;19.27;;;10.45;;
31978;SDS011;18502;43.574;1.276;2022-12-18T01:03:08;15.80;;;9.85;;
31978;SDS011;18502;43.574;1.276;2022-12-18T01:05:38;16.40;;;10.23;;
31978;SDS011;18502;43.574;1.276;2022-12-18T01:08:05;20.10;;;10.35;;
31978;SDS011;18502;43.574;1.276;2022-12-18T01:10:31;15.63;;;9.73;;
31978;SDS011;18502;43.574;1.276;2022-12-18T01:12:57;18.08;;;10.20;;
31978;SDS011;18502;43.574;1.276;2022-12-18T01:15:22;16.63;;;10.48;;
31978;SDS011;18502;43.574;1.276;2022-12-18T01:17:48;15.27;;;8.32;;
31978;SDS011;18502;43.574;1.276;2022-12-18T01:20:14;18.15;;;10.38;;
31978;SDS011;18502;43.574;1.276;2022-12-18T01:22:39;13.80;;;8.05;;
31978;SDS011;18502;43.574;1.276;2022-12-18T01:25:05;18.95;;;10.20;;
31978;SDS011;18502;43.574;1.276;2022-12-18T01:27:32;15.27;;;9.63;;
31978;SDS011;18502;43.574;1.276;2022-12-18T01:29:58;22.27;;;10.80;;
31978;SDS011;18502;43.574;1.276;2022-12-18T01:32:24;16.55;;;9.32;;
31978;SDS011;18502;43.574;1.276;2022-12-18T01:34:50;17.00;;;8.95;;
31978;SDS011;18502;43.574;1.276;2022-12-18T01:37:16;14.35;;;8.27;;
31978;SDS011;18502;43.574;1.276;2022-12-18T01:39:41;17.95;;;10.38;;
31978;SDS011;18502;43.574;1.276;2022-12-18T01:42:14;18.55;;;10.27;;
31978;SDS011;18502;43.574;1.276;2022-12-18T01:47:19;18.13;;;9.13;;
31978;SDS011;18502;43.574;1.276;2022-12-18T01:52:43;19.48;;;10.85;;
31978;SDS011;18502;43.574;1.276;2022-12-18T01:55:12;19.55;;;10.60;;
31978;SDS011;18502;43.574;1.276;2022-12-18T01:57:41;15.52;;;9.13;;
31978;SDS011;18502;43.574;1.276;2022-12-18T02:00:11;17.50;;;9.43;;
31978;SDS011;18502;43.574;1.276;2022-12-18T02:02:40;16.60;;;8.02;;
31978;SDS011;18502;43.574;1.276;2022-12-18T02:05:08;18.42;;;9.45;;
31978;SDS011;18502;43.574;1.276;2022-12-18T02:10:29;17.65;;;9.77;;
31978;SDS011;18502;43.574;1.276;2022-12-18T02:18:40;15.18;;;8.45;;
31978;SDS011;18502;43.574;1.276;2022-12-18T02:24:31;13.25;;;7.03;;
31978;SDS011;18502;43.574;1.276;2022-12-18T02:27:24;16.45;;;8.55;;
31978;SDS011;18502;43.574;1.276;2022-12-18T02:29:51;16.25;;;8.73;;
31978;SDS011;18502;43.574;1.276;2022-12-18T02:32:22;18.05;;;10.52;;
31978;SDS011;18502;43.574;1.276;2022-12-18T02:34:52;21.00;;;11.40;;
31978;SDS011;18502;43.574;1.276;2022-12-18T02:37:21;21.13;;;11.05;;
31978;SDS011;18502;43.574;1.276;2022-12-18T02:39:48;18.80;;;10.55;;
31978;SDS011;18502;43.574;1.276;2022-12-18T02:42:16;21.80;;;11.93;;
31978;SDS011;18502;43.574;1.276;2022-12-18T02:44:47;23.05;;;11.82;;
31978;SDS011;18502;43.574;1.276;2022-12-18T02:47:15;23.35;;;10.80;;
31978;SDS011;18502;43.574;1.276;2022-12-18T02:52:30;23.48;;;11.85;;
31978;SDS011;18502;43.574;1.276;2022-12-18T02:58:03;30.58;;;13.10;;
31978;SDS011;18502;43.574;1.276;2022-12-18T03:03:07;30.77;;;13.82;;
31978;SDS011;18502;43.574;1.276;2022-12-18T03:05:57;34.15;;;14.65;;
31978;SDS011;18502;43.574;1.276;2022-12-18T03:08:38;31.80;;;13.70;;
31978;SDS011;18502;43.574;1.276;2022-12-18T03:11:08;29.27;;;13.32;;
31978;SDS011;18502;43.574;1.276;2022-12-18T03:16:09;33.63;;;14.52;;
31978;SDS011;18502;43.574;1.276;2022-12-18T03:21:06;35.38;;;16.33;;
31978;SDS011;18502;43.574;1.276;2022-12-18T03:23:36;47.83;;;21.20;;
31978;SDS011;18502;43.574;1.276;2022-12-18T03:26:10;48.42;;;19.63;;
31978;SDS011;18502;43.574;1.276;2022-12-18T03:28:42;44.20;;;16.80;;
31978;SDS011;18502;43.574;1.276;2022-12-18T03:31:14;43.58;;;16.33;;
31978;SDS011;18502;43.574;1.276;2022-12-18T03:33:43;45.60;;;18.23;;
31978;SDS011;18502;43.574;1.276;2022-12-18T03:36:19;53.63;;;22.73;;
31978;SDS011;18502;43.574;1.276;2022-12-18T03:38:45;45.45;;;18.35;;
31978;SDS011;18502;43.574;1.276;2022-12-18T03:41:25;40.20;;;15.70;;
31978;SDS011;18502;43.574;1.276;2022-12-18T03:46:30;42.03;;;15.15;;
31978;SDS011;18502;43.574;1.276;2022-12-18T03:49:30;40.42;;;14.93;;
31978;SDS011;18502;43.574;1.276;2022-12-18T03:54:34;38.17;;;14.30;;
31978;SDS011;18502;43.574;1.276;2022-12-18T03:57:04;45.10;;;16.00;;
31978;SDS011;18502;43.574;1.276;2022-12-18T03:59:40;40.75;;;16.23;;
31978;SDS011;18502;43.574;1.276;2022-12-18T04:02:08;41.58;;;16.63;;
31978;SDS011;18502;43.574;1.276;2022-12-18T04:04:35;31.27;;;14.57;;
31978;SDS011;18502;43.574;1.276;2022-12-18T04:07:04;30.52;;;14.30;;
31978;SDS011;18502;43.574;1.276;2022-12-18T04:09:30;29.88;;;10.93;;
31978;SDS011;18502;43.574;1.276;2022-12-18T04:11:58;29.60;;;13.63;;
31978;SDS011;18502;43.574;1.276;2022-12-18T04:14:24;27.15;;;12.82;;
31978;SDS011;18502;43.574;1.276;2022-12-18T04:16:49;27.83;;;12.02;;
31978;SDS011;18502;43.574;1.276;2022-12-18T04:19:15;27.08;;;12.85;;
31978;SDS011;18502;43.574;1.276;2022-12-18T04:21:41;26.15;;;10.77;;
31978;SDS011;18502;43.574;1.276;2022-12-18T04:24:07;21.77;;;9.48;;
31978;SDS011;18502;43.574;1.276;2022-12-18T04:26:33;24.33;;;12.27;;
31978;SDS011;18502;43.574;1.276;2022-12-18T04:28:59;25.92;;;12.35;;
31978;SDS011;18502;43.574;1.276;2022-12-18T04:31:24;25.35;;;12.13;;
31978;SDS011;18502;43.574;1.276;2022-12-18T04:33:50;25.75;;;11.95;;
31978;SDS011;18502;43.574;1.276;2022-12-18T04:36:16;28.20;;;12.88;;
31978;SDS011;18502;43.574;1.276;2022-12-18T04:38:42;30.17;;;14.07;;
31978;SDS011;18502;43.574;1.276;2022-12-18T04:41:07;27.50;;;13.82;;
31978;SDS011;18502;43.574;1.276;2022-12-18T04:43:33;30.52;;;14.55;;
31978;SDS011;18502;43.574;1.276;2022-12-18T04:46:06;28.70;;;13.63;;
31978;SDS011;18502;43.574;1.276;2022-12-18T04:48:33;30.25;;;13.10;;
31978;SDS011;18502;43.574;1.276;2022-12-18T04:50:59;29.60;;;13.85;;
31978;SDS011;18502;43.574;1.276;2022-12-18T04:53:25;32.33;;;14.93;;
31978;SDS011;18502;43.574;1.276;2022-12-18T04:56:02;29.05;;;15.13;;
31978;SDS011;18502;43.574;1.276;2022-12-18T04:58:33;30.80;;;14.23;;
31978;SDS011;18502;43.574;1.276;2022-12-18T05:01:00;25.25;;;13.35;;
31978;SDS011;18502;43.574;1.276;2022-12-18T05:03:26;27.83;;;13.32;;
31978;SDS011;18502;43.574;1.276;2022-12-18T05:05:52;29.05;;;15.18;;
31978;SDS011;18502;43.574;1.276;2022-12-18T05:08:18;28.17;;;13.23;;
31978;SDS011;18502;43.574;1.276;2022-12-18T05:10:44;29.88;;;15.93;;
31978;SDS011;18502;43.574;1.276;2022-12-18T05:13:10;27.08;;;14.75;;
31978;SDS011;18502;43.574;1.276;2022-12-18T05:15:35;30.70;;;13.57;;
31978;SDS011;18502;43.574;1.276;2022-12-18T05:18:01;27.05;;;13.27;;
31978;SDS011;18502;43.574;1.276;2022-12-18T05:20:28;28.00;;;12.70;;
31978;SDS011;18502;43.574;1.276;2022-12-18T05:22:55;26.55;;;13.35;;
31978;SDS011;18502;43.574;1.276;2022-12-18T05:25:21;26.08;;;13.25;;
31978;SDS011;18502;43.574;1.276;2022-12-18T05:27:47;28.27;;;14.30;;
31978;SDS011;18502;43.574;1.276;2022-12-18T05:30:13;28.77;;;13.48;;
31978;SDS011;18502;43.574;1.276;2022-12-18T05:32:40;32.55;;;16.10;;
31978;SDS011;18502;43.574;1.276;2022-12-18T05:35:07;29.15;;;14.57;;
31978;SDS011;18502;43.574;1.276;2022-12-18T05:37:34;26.50;;;14.30;;
31978;SDS011;18502;43.574;1.276;2022-12-18T05:40:00;30.30;;;15.15;;
31978;SDS011;18502;43.574;1.276;2022-12-18T05:42:27;29.73;;;14.25;;
31978;SDS011;18502;43.574;1.276;2022-12-18T05:44:53;28.60;;;14.85;;
31978;SDS011;18502;43.574;1.276;2022-12-18T05:47:18;31.88;;;15.45;;
31978;SDS011;18502;43.574;1.276;2022-12-18T05:49:44;30.77;;;15.48;;
31978;SDS011;18502;43.574;1.276;2022-12-18T05:52:10;28.27;;;14.68;;
31978;SDS011;18502;43.574;1.276;2022-12-18T05:54:36;26.77;;;15.02;;
31978;SDS011;18502;43.574;1.276;2022-12-18T05:57:01;26.45;;;13.77;;
31978;SDS011;18502;43.574;1.276;2022-12-18T05:59:27;30.73;;;15.63;;
31978;SDS011;18502;43.574;1.276;2022-12-18T06:01:53;29.45;;;15.77;;
31978;SDS011;18502;43.574;1.276;2022-12-18T06:04:18;33.22;;;16.17;;
31978;SDS011;18502;43.574;1.276;2022-12-18T06:06:44;29.65;;;14.95;;
31978;SDS011;18502;43.574;1.276;2022-12-18T06:09:10;31.02;;;15.65;;
31978;SDS011;18502;43.574;1.276;2022-12-18T06:11:37;33.72;;;16.90;;
31978;SDS011;18502;43.574;1.276;2022-12-18T06:14:03;33.80;;;16.50;;
31978;SDS011;18502;43.574;1.276;2022-12-18T06:16:30;32.40;;;16.65;;
31978;SDS011;18502;43.574;1.276;2022-12-18T06:18:57;35.45;;;18.85;;
31978;SDS011;18502;43.574;1.276;2022-12-18T06:21:24;39.85;;;19.20;;
31978;SDS011;18502;43.574;1.276;2022-12-18T06:23:49;36.13;;;16.55;;
31978;SDS011;18502;43.574;1.276;2022-12-18T06:26:15;36.58;;;18.55;;
31978;SDS011;18502;43.574;1.276;2022-12-18T06:28:41;36.05;;;18.13;;
31978;SDS011;18502;43.574;1.276;2022-12-18T06:31:07;37.15;;;19.48;;
31978;SDS011;18502;43.574;1.276;2022-12-18T06:33:34;37.35;;;17.80;;
31978;SDS011;18502;43.574;1.276;2022-12-18T06:36:04;35.28;;;18.92;;
31978;SDS011;18502;43.574;1.276;2022-12-18T06:38:32;31.75;;;16.80;;
31978;SDS011;18502;43.574;1.276;2022-12-18T06:40:59;28.33;;;15.52;;
31978;SDS011;18502;43.574;1.276;2022-12-18T06:43:25;34.28;;;18.30;;
31978;SDS011;18502;43.574;1.276;2022-12-18T06:45:51;28.02;;;13.68;;
31978;SDS011;18502;43.574;1.276;2022-12-18T06:48:22;24.17;;;13.38;;
31978;SDS011;18502;43.574;1.276;2022-12-18T06:50:48;24.20;;;13.63;;
31978;SDS011;18502;43.574;1.276;2022-12-18T06:53:13;27.02;;;12.95;;
31978;SDS011;18502;43.574;1.276;2022-12-18T06:55:39;25.45;;;13.38;;
31978;SDS011;18502;43.574;1.276;2022-12-18T06:58:05;27.48;;;14.25;;
31978;SDS011;18502;43.574;1.276;2022-12-18T07:00:31;27.10;;;15.20;;
31978;SDS011;18502;43.574;1.276;2022-12-18T07:02:57;25.25;;;13.13;;
31978;SDS011;18502;43.574;1.276;2022-12-18T07:05:22;23.92;;;13.40;;
31978;SDS011;18502;43.574;1.276;2022-12-18T07:07:48;20.95;;;11.98;;
31978;SDS011;18502;43.574;1.276;2022-12-18T07:10:14;19.20;;;11.95;;
31978;SDS011;18502;43.574;1.276;2022-12-18T07:12:39;21.52;;;11.15;;
31978;SDS011;18502;43.574;1.276;2022-12-18T07:15:06;18.30;;;10.38;;
31978;SDS011;18502;43.574;1.276;2022-12-18T07:17:32;21.23;;;12.35;;
31978;SDS011;18502;43.574;1.276;2022-12-18T07:19:58;19.60;;;11.43;;
31978;SDS011;18502;43.574;1.276;2022-12-18T07:22:24;22.40;;;12.00;;
31978;SDS011;18502;43.574;1.276;2022-12-18T07:24:51;21.60;;;12.00;;
31978;SDS011;18502;43.574;1.276;2022-12-18T07:27:16;21.65;;;10.68;;
31978;SDS011;18502;43.574;1.276;2022-12-18T07:29:42;20.05;;;12.00;;
31978;SDS011;18502;43.574;1.276;2022-12-18T07:32:08;18.88;;;10.88;;
31978;SDS011;18502;43.574;1.276;2022-12-18T07:34:33;22.50;;;12.15;;
31978;SDS011;18502;43.574;1.276;2022-12-18T07:36:59;21.33;;;12.23;;
31978;SDS011;18502;43.574;1.276;2022-12-18T07:39:25;22.85;;;12.35;;
31978;SDS011;18502;43.574;1.276;2022-12-18T07:41:51;16.63;;;11.35;;
31978;SDS011;18502;43.574;1.276;2022-12-18T07:44:35;19.13;;;11.45;;
31978;SDS011;18502;43.574;1.276;2022-12-18T07:47:01;19.88;;;10.82;;
31978;SDS011;18502;43.574;1.276;2022-12-18T07:49:27;20.50;;;10.43;;
31978;SDS011;18502;43.574;1.276;2022-12-18T07:51:56;19.80;;;11.93;;
31978;SDS011;18502;43.574;1.276;2022-12-18T07:54:23;16.40;;;11.05;;
31978;SDS011;18502;43.574;1.276;2022-12-18T07:56:49;15.43;;;9.63;;
31978;SDS011;18502;43.574;1.276;2022-12-18T07:59:16;16.15;;;9.75;;
31978;SDS011;18502;43.574;1.276;2022-12-18T08:01:41;13.30;;;9.25;;
31978;SDS011;18502;43.574;1.276;2022-12-18T08:04:07;14.10;;;8.98;;
31978;SDS011;18502;43.574;1.276;2022-12-18T08:06:33;13.40;;;7.97;;
31978;SDS011;18502;43.574;1.276;2022-12-18T08:08:59;10.20;;;7.07;;
31978;SDS011;18502;43.574;1.276;2022-12-18T08:11:25;10.32;;;6.97;;
31978;SDS011;18502;43.574;1.276;2022-12-18T08:13:52;12.18;;;6.88;;
31978;SDS011;18502;43.574;1.276;2022-12-18T08:16:18;10.02;;;6.47;;
31978;SDS011;18502;43.574;1.276;2022-12-18T08:18:44;9.85;;;6.35;;
31978;SDS011;18502;43.574;1.276;2022-12-18T08:21:11;11.32;;;6.57;;
31978;SDS011;18502;43.574;1.276;2022-12-18T08:23:45;9.93;;;6.95;;
31978;SDS011;18502;43.574;1.276;2022-12-18T08:26:11;12.07;;;8.18;;
31978;SDS011;18502;43.574;1.276;2022-12-18T08:28:38;11.98;;;8.15;;
31978;SDS011;18502;43.574;1.276;2022-12-18T08:31:04;14.40;;;8.82;;
31978;SDS011;18502;43.574;1.276;2022-12-18T08:33:30;12.27;;;8.93;;
31978;SDS011;18502;43.574;1.276;2022-12-18T08:35:58;12.85;;;7.80;;
31978;SDS011;18502;43.574;1.276;2022-12-18T08:38:24;13.05;;;7.80;;
31978;SDS011;18502;43.574;1.276;2022-12-18T08:40:54;10.35;;;7.32;;
31978;SDS011;18502;43.574;1.276;2022-12-18T08:43:26;14.60;;;8.68;;
31978;SDS011;18502;43.574;1.276;2022-12-18T08:46:11;13.05;;;8.48;;
31978;SDS011;18502;43.574;1.276;2022-12-18T08:48:37;13.75;;;8.60;;
31978;SDS011;18502;43.574;1.276;2022-12-18T08:51:03;13.60;;;8.65;;
31978;SDS011;18502;43.574;1.276;2022-12-18T08:53:28;20.85;;;9.05;;
31978;SDS011;18502;43.574;1.276;2022-12-18T08:55:56;11.30;;;7.50;;
31978;SDS011;18502;43.574;1.276;2022-12-18T08:58:21;12.93;;;7.85;;
31978;SDS011;18502;43.574;1.276;2022-12-18T09:00:47;13.07;;;7.20;;
31978;SDS011;18502;43.574;1.276;2022-12-18T09:03:16;11.63;;;7.13;;
31978;SDS011;18502;43.574;1.276;2022-12-18T09:05:43;9.38;;;6.70;;
31978;SDS011;18502;43.574;1.276;2022-12-18T09:08:11;11.57;;;6.93;;
31978;SDS011;18502;43.574;1.276;2022-12-18T09:10:43;11.20;;;6.60;;
31978;SDS011;18502;43.574;1.276;2022-12-18T09:13:10;9.00;;;5.90;;
31978;SDS011;18502;43.574;1.276;2022-12-18T09:15:40;8.15;;;5.57;;
31978;SDS011;18502;43.574;1.276;2022-12-18T09:20:34;7.93;;;4.82;;
31978;SDS011;18502;43.574;1.276;2022-12-18T09:23:01;7.47;;;4.65;;
31978;SDS011;18502;43.574;1.276;2022-12-18T09:25:28;8.05;;;4.97;;
31978;SDS011;18502;43.574;1.276;2022-12-18T09:27:58;9.32;;;4.95;;
31978;SDS011;18502;43.574;1.276;2022-12-18T09:30:24;7.47;;;5.22;;
31978;SDS011;18502;43.574;1.276;2022-12-18T09:32:50;8.77;;;4.43;;
31978;SDS011;18502;43.574;1.276;2022-12-18T09:35:15;5.90;;;3.60;;
31978;SDS011;18502;43.574;1.276;2022-12-18T09:37:41;10.45;;;4.78;;
31978;SDS011;18502;43.574;1.276;2022-12-18T09:40:12;8.98;;;5.22;;
31978;SDS011;18502;43.574;1.276;2022-12-18T09:42:40;7.13;;;4.85;;
31978;SDS011;18502;43.574;1.276;2022-12-18T09:45:13;8.32;;;5.38;;
31978;SDS011;18502;43.574;1.276;2022-12-18T09:47:41;6.32;;;4.75;;
31978;SDS011;18502;43.574;1.276;2022-12-18T09:50:29;7.85;;;4.32;;
31978;SDS011;18502;43.574;1.276;2022-12-18T09:53:12;7.97;;;5.07;;
31978;SDS011;18502;43.574;1.276;2022-12-18T09:55:46;11.18;;;4.80;;
31978;SDS011;18502;43.574;1.276;2022-12-18T10:00:45;6.60;;;4.28;;
31978;SDS011;18502;43.574;1.276;2022-12-18T10:03:12;6.18;;;5.07;;
31978;SDS011;18502;43.574;1.276;2022-12-18T10:14:20;6.88;;;3.63;;
31978;SDS011;18502;43.574;1.276;2022-12-18T10:17:12;5.43;;;3.65;;
31978;SDS011;18502;43.574;1.276;2022-12-18T10:22:41;5.43;;;2.80;;
31978;SDS011;18502;43.574;1.276;2022-12-18T10:28:07;6.72;;;3.97;;
31978;SDS011;18502;43.574;1.276;2022-12-18T10:30:39;4.72;;;3.35;;
31978;SDS011;18502;43.574;1.276;2022-12-18T10:33:08;5.60;;;3.65;;
31978;SDS011;18502;43.574;1.276;2022-12-18T10:35:37;6.70;;;3.45;;
31978;SDS011;18502;43.574;1.276;2022-12-18T10:38:07;4.43;;;3.03;;
31978;SDS011;18502;43.574;1.276;2022-12-18T10:43:37;3.40;;;2.78;;
31978;SDS011;18502;43.574;1.276;2022-12-18T10:49:17;4.57;;;3.55;;
31978;SDS011;18502;43.574;1.276;2022-12-18T10:51:23;5.68;;;3.15;;
31978;SDS011;18502;43.574;1.276;2022-12-18T10:54:01;3.75;;;2.92;;
31978;SDS011;18502;43.574;1.276;2022-12-18T10:56:28;4.40;;;2.58;;
31978;SDS011;18502;43.574;1.276;2022-12-18T10:58:58;5.97;;;3.85;;
31978;SDS011;18502;43.574;1.276;2022-12-18T11:04:19;3.85;;;2.40;;
31978;SDS011;18502;43.574;1.276;2022-12-18T11:09:25;4.10;;;3.25;;
31978;SDS011;18502;43.574;1.276;2022-12-18T11:11:54;4.50;;;3.08;;
31978;SDS011;18502;43.574;1.276;2022-12-18T11:14:28;4.85;;;2.78;;
31978;SDS011;18502;43.574;1.276;2022-12-18T11:16:57;5.68;;;2.50;;
31978;SDS011;18502;43.574;1.276;2022-12-18T11:22:01;2.10;;;1.80;;
31978;SDS011;18502;43.574;1.276;2022-12-18T11:27:53;6.70;;;3.63;;
31978;SDS011;18502;43.574;1.276;2022-12-18T11:33:15;4.93;;;3.20;;
31978;SDS011;18502;43.574;1.276;2022-12-18T11:35:53;5.93;;;3.13;;
31978;SDS011;18502;43.574;1.276;2022-12-18T11:43:32;2.28;;;1.90;;
31978;SDS011;18502;43.574;1.276;2022-12-18T11:46:26;5.25;;;2.75;;
31978;SDS011;18502;43.574;1.276;2022-12-18T11:49:01;4.95;;;2.70;;
31978;SDS011;18502;43.574;1.276;2022-12-18T11:51:41;2.72;;;2.00;;
31978;SDS011;18502;43.574;1.276;2022-12-18T11:54:18;3.05;;;2.28;;
31978;SDS011;18502;43.574;1.276;2022-12-18T11:56:46;3.42;;;2.35;;
31978;SDS011;18502;43.574;1.276;2022-12-18T12:15:33;4.75;;;2.47;;
31978;SDS011;18502;43.574;1.276;2022-12-18T12:32:07;2.63;;;2.22;;
31978;SDS011;18502;43.574;1.276;2022-12-18T12:37:29;7.05;;;2.92;;
31978;SDS011;18502;43.574;1.276;2022-12-18T12:39:58;3.30;;;2.67;;
31978;SDS011;18502;43.574;1.276;2022-12-18T12:42:29;3.80;;;3.00;;
31978;SDS011;18502;43.574;1.276;2022-12-18T12:45:23;4.78;;;3.20;;
31978;SDS011;18502;43.574;1.276;2022-12-18T12:47:55;7.70;;;3.50;;
31978;SDS011;18502;43.574;1.276;2022-12-18T12:50:26;6.05;;;2.95;;
31978;SDS011;18502;43.574;1.276;2022-12-18T12:52:53;9.07;;;3.72;;
31978;SDS011;18502;43.574;1.276;2022-12-18T12:55:22;4.53;;;3.28;;
31978;SDS011;18502;43.574;1.276;2022-12-18T13:00:30;6.40;;;2.97;;
31978;SDS011;18502;43.574;1.276;2022-12-18T13:08:10;4.68;;;2.80;;
31978;SDS011;18502;43.574;1.276;2022-12-18T13:10:47;6.90;;;4.43;;
31978;SDS011;18502;43.574;1.276;2022-12-18T13:13:13;5.90;;;3.85;;
31978;SDS011;18502;43.574;1.276;2022-12-18T13:15:47;8.25;;;4.60;;
31978;SDS011;18502;43.574;1.276;2022-12-18T13:18:28;5.70;;;4.05;;
31978;SDS011;18502;43.574;1.276;2022-12-18T13:23:25;9.70;;;4.30;;
31978;SDS011;18502;43.574;1.276;2022-12-18T13:30:59;5.30;;;3.70;;
31978;SDS011;18502;43.574;1.276;2022-12-18T13:38:36;9.48;;;4.45;;
31978;SDS011;18502;43.574;1.276;2022-12-18T13:43:47;8.48;;;3.97;;
31978;SDS011;18502;43.574;1.276;2022-12-18T13:48:51;6.22;;;3.80;;
31978;SDS011;18502;43.574;1.276;2022-12-18T13:51:22;8.82;;;3.80;;
31978;SDS011;18502;43.574;1.276;2022-12-18T13:53:53;6.32;;;4.72;;
31978;SDS011;18502;43.574;1.276;2022-12-18T13:56:32;6.13;;;3.83;;
31978;SDS011;18502;43.574;1.276;2022-12-18T13:59:08;5.97;;;4.60;;
31978;SDS011;18502;43.574;1.276;2022-12-18T14:04:30;6.60;;;4.07;;
31978;SDS011;18502;43.574;1.276;2022-12-18T14:10:14;5.90;;;4.18;;
31978;SDS011;18502;43.574;1.276;2022-12-18T14:15:20;7.80;;;4.57;;
31978;SDS011;18502;43.574;1.276;2022-12-18T14:17:53;5.22;;;4.03;;
31978;SDS011;18502;43.574;1.276;2022-12-18T14:20:41;7.38;;;4.57;;
31978;SDS011;18502;43.574;1.276;2022-12-18T14:25:56;4.53;;;3.63;;
31978;SDS011;18502;43.574;1.276;2022-12-18T14:28:22;4.65;;;3.25;;
31978;SDS011;18502;43.574;1.276;2022-12-18T14:30:48;6.30;;;3.72;;
31978;SDS011;18502;43.574;1.276;2022-12-18T14:33:24;6.10;;;4.07;;
31978;SDS011;18502;43.574;1.276;2022-12-18T14:36:01;5.30;;;4.03;;
31978;SDS011;18502;43.574;1.276;2022-12-18T14:38:33;5.03;;;3.70;;
31978;SDS011;18502;43.574;1.276;2022-12-18T14:43:35;5.15;;;4.00;;
31978;SDS011;18502;43.574;1.276;2022-12-18T14:46:03;4.88;;;4.10;;
31978;SDS011;18502;43.574;1.276;2022-12-18T14:53:32;4.90;;;2.60;;
31978;SDS011;18502;43.574;1.276;2022-12-18T14:56:00;4.55;;;3.10;;
31978;SDS011;18502;43.574;1.276;2022-12-18T14:58:28;10.00;;;4.68;;
31978;SDS011;18502;43.574;1.276;2022-12-18T15:00:53;5.32;;;3.33;;
31978;SDS011;18502;43.574;1.276;2022-12-18T15:03:20;7.75;;;4.18;;
31978;SDS011;18502;43.574;1.276;2022-12-18T15:05:46;6.38;;;3.90;;
31978;SDS011;18502;43.574;1.276;2022-12-18T15:08:28;5.80;;;3.42;;
31978;SDS011;18502;43.574;1.276;2022-12-18T15:10:59;6.88;;;4.18;;
31978;SDS011;18502;43.574;1.276;2022-12-18T15:13:25;6.82;;;4.15;;
31978;SDS011;18502;43.574;1.276;2022-12-18T15:15:51;9.77;;;4.50;;
31978;SDS011;18502;43.574;1.276;2022-12-18T15:18:23;6.40;;;4.68;;
31978;SDS011;18502;43.574;1.276;2022-12-18T15:20:56;5.20;;;3.17;;
31978;SDS011;18502;43.574;1.276;2022-12-18T15:23:26;7.68;;;3.50;;
31978;SDS011;18502;43.574;1.276;2022-12-18T15:25:56;5.55;;;3.95;;
31978;SDS011;18502;43.574;1.276;2022-12-18T15:28:43;5.85;;;3.75;;
31978;SDS011;18502;43.574;1.276;2022-12-18T15:33:42;11.68;;;4.10;;
31978;SDS011;18502;43.574;1.276;2022-12-18T15:36:18;4.95;;;3.33;;
31978;SDS011;18502;43.574;1.276;2022-12-18T15:38:47;7.30;;;4.32;;
31978;SDS011;18502;43.574;1.276;2022-12-18T15:41:18;6.55;;;4.25;;
31978;SDS011;18502;43.574;1.276;2022-12-18T15:43:46;8.23;;;4.60;;
31978;SDS011;18502;43.574;1.276;2022-12-18T15:46:14;8.18;;;4.50;;
31978;SDS011;18502;43.574;1.276;2022-12-18T15:48:42;7.57;;;3.92;;
31978;SDS011;18502;43.574;1.276;2022-12-18T15:51:17;8.90;;;4.53;;
31978;SDS011;18502;43.574;1.276;2022-12-18T15:53:50;9.73;;;5.25;;
31978;SDS011;18502;43.574;1.276;2022-12-18T15:56:21;9.93;;;4.60;;
31978;SDS011;18502;43.574;1.276;2022-12-18T15:59:15;7.85;;;3.45;;
31978;SDS011;18502;43.574;1.276;2022-12-18T16:01:43;16.15;;;5.57;;
31978;SDS011;18502;43.574;1.276;2022-12-18T16:04:12;9.77;;;4.75;;
31978;SDS011;18502;43.574;1.276;2022-12-18T16:06:40;8.65;;;5.07;;
31978;SDS011;18502;43.574;1.276;2022-12-18T16:09:06;9.60;;;5.38;;
31978;SDS011;18502;43.574;1.276;2022-12-18T16:11:33;8.35;;;5.53;;
31978;SDS011;18502;43.574;1.276;2022-12-18T16:16:30;10.48;;;5.75;;
31978;SDS011;18502;43.574;1.276;2022-12-18T16:18:55;10.23;;;5.55;;
31978;SDS011;18502;43.574;1.276;2022-12-18T16:21:21;14.10;;;5.25;;
31978;SDS011;18502;43.574;1.276;2022-12-18T16:23:47;11.45;;;6.05;;
31978;SDS011;18502;43.574;1.276;2022-12-18T16:26:12;9.10;;;5.07;;
31978;SDS011;18502;43.574;1.276;2022-12-18T16:28:38;12.40;;;5.43;;
31978;SDS011;18502;43.574;1.276;2022-12-18T16:31:04;14.93;;;6.07;;
31978;SDS011;18502;43.574;1.276;2022-12-18T16:33:30;12.50;;;5.80;;
31978;SDS011;18502;43.574;1.276;2022-12-18T16:35:55;12.15;;;6.35;;
31978;SDS011;18502;43.574;1.276;2022-12-18T16:38:21;11.45;;;6.25;;
31978;SDS011;18502;43.574;1.276;2022-12-18T16:40:47;10.57;;;5.88;;
31978;SDS011;18502;43.574;1.276;2022-12-18T16:43:31;10.90;;;4.82;;
31978;SDS011;18502;43.574;1.276;2022-12-18T16:45:58;13.25;;;6.40;;
31978;SDS011;18502;43.574;1.276;2022-12-18T16:48:24;11.07;;;5.60;;
31978;SDS011;18502;43.574;1.276;2022-12-18T16:50:50;10.93;;;6.18;;
31978;SDS011;18502;43.574;1.276;2022-12-18T16:53:24;15.15;;;7.63;;
31978;SDS011;18502;43.574;1.276;2022-12-18T16:55:53;11.82;;;5.25;;
31978;SDS011;18502;43.574;1.276;2022-12-18T16:58:22;9.52;;;5.40;;
31978;SDS011;18502;43.574;1.276;2022-12-18T17:00:48;11.90;;;6.22;;
31978;SDS011;18502;43.574;1.276;2022-12-18T17:03:14;10.68;;;6.30;;
31978;SDS011;18502;43.574;1.276;2022-12-18T17:05:39;13.50;;;6.80;;
31978;SDS011;18502;43.574;1.276;2022-12-18T17:08:05;13.23;;;5.95;;
31978;SDS011;18502;43.574;1.276;2022-12-18T17:10:30;10.27;;;5.85;;
31978;SDS011;18502;43.574;1.276;2022-12-18T17:12:59;11.20;;;6.30;;
31978;SDS011;18502;43.574;1.276;2022-12-18T17:15:25;12.95;;;6.00;;
31978;SDS011;18502;43.574;1.276;2022-12-18T17:17:50;15.77;;;5.88;;
31978;SDS011;18502;43.574;1.276;2022-12-18T17:20:16;10.82;;;5.45;;
31978;SDS011;18502;43.574;1.276;2022-12-18T17:22:42;12.85;;;6.60;;
31978;SDS011;18502;43.574;1.276;2022-12-18T17:25:07;13.23;;;5.90;;
31978;SDS011;18502;43.574;1.276;2022-12-18T17:27:33;9.27;;;5.57;;